createdAt,value
2022-08-09T00:00:01.028Z,9.63
2022-08-09T00:02:34.063Z,10.52
2022-08-09T00:06:15.395Z,10.10
2022-08-09T00:07:48.950Z,9.88
2022-08-09T00:10:17.934Z,10.00
2022-08-09T00:12:51.540Z,9.30
2022-08-09T00:15:19.949Z,10.05
2022-08-09T00:18:07.570Z,9.70
2022-08-09T00:20:42.381Z,9.82
2022-08-09T00:23:54.841Z,9.00
2022-08-09T00:26:11.136Z,9.23
2022-08-09T00:28:39.665Z,9.35
2022-08-09T00:31:56.811Z,9.25
2022-08-09T00:33:55.366Z,8.77
2022-08-09T00:36:29.581Z,9.27
2022-08-09T00:38:58.453Z,8.63
2022-08-09T00:44:13.223Z,9.40
2022-08-09T00:44:25.434Z,8.95
2022-08-09T00:47:05.404Z,9.18
2022-08-09T00:49:38.948Z,8.57
2022-08-09T00:52:17.245Z,9.00
2022-08-09T00:54:45.610Z,8.82
2022-08-09T00:57:12.799Z,9.63
2022-08-09T00:59:46.460Z,9.52
2022-08-09T01:02:27.723Z,9.30
2022-08-09T01:05:03.567Z,9.85
2022-08-09T01:08:00.321Z,10.02
2022-08-09T01:10:35.895Z,9.90
2022-08-09T01:13:09.263Z,9.27
2022-08-09T01:15:52.158Z,10.02
2022-08-09T01:18:31.457Z,9.18
2022-08-09T01:21:17.066Z,8.90
2022-08-09T01:24:11.119Z,8.77
2022-08-09T01:27:09.653Z,9.30
2022-08-09T01:29:55.712Z,8.88
2022-08-09T01:32:34.055Z,9.30
2022-08-09T01:35:29.124Z,9.23
2022-08-09T01:38:09.305Z,8.80
2022-08-09T01:40:41.466Z,8.50
2022-08-09T01:43:10.070Z,9.10
2022-08-09T01:45:46.283Z,9.23
2022-08-09T01:48:29.487Z,9.48
2022-08-09T01:50:58.680Z,9.20
2022-08-09T01:53:29.291Z,9.43
2022-08-09T01:56:11.234Z,9.10
2022-08-09T01:58:40.286Z,8.95
2022-08-09T02:01:09.153Z,9.38
2022-08-09T02:03:37.229Z,9.43
2022-08-09T02:06:07.379Z,9.35
2022-08-09T02:08:57.916Z,8.65
2022-08-09T02:11:42.638Z,9.38
2022-08-09T02:16:53.243Z,9.18
2022-08-09T02:19:38.538Z,9.45
2022-08-09T02:22:16.879Z,8.85
2022-08-09T02:24:52.009Z,9.25
2022-08-09T02:27:43.127Z,8.90
2022-08-09T02:30:12.693Z,8.57
2022-08-09T02:32:46.195Z,9.45
2022-08-09T02:36:02.491Z,8.45
2022-08-09T02:38:27.948Z,8.75
2022-08-09T02:41:01.104Z,8.02
2022-08-09T02:43:54.235Z,8.65
2022-08-09T02:46:18.930Z,8.63
2022-08-09T02:48:46.978Z,7.80
2022-08-09T02:51:20.451Z,8.18
2022-08-09T02:54:00.533Z,8.13
2022-08-09T02:56:30.576Z,8.20
2022-08-09T02:58:59.728Z,9.10
2022-08-09T03:01:29.638Z,8.13
2022-08-09T03:04:19.165Z,8.48
2022-08-09T03:06:49.011Z,7.45
2022-08-09T03:09:18.204Z,7.63
2022-08-09T03:12:06.210Z,7.82
2022-08-09T03:14:37.474Z,6.90
2022-08-09T03:17:05.523Z,7.82
2022-08-09T03:19:59.311Z,7.50
2022-08-09T03:22:25.467Z,6.60
2022-08-09T03:25:05.665Z,9.70
2022-08-09T03:27:49.995Z,7.15
2022-08-09T03:30:28.107Z,7.40
2022-08-09T03:33:01.980Z,7.32
2022-08-09T03:36:11.602Z,7.82
2022-08-09T03:38:28.781Z,8.25
2022-08-09T03:40:56.304Z,7.82
2022-08-09T03:43:22.979Z,8.48
2022-08-09T03:46:04.228Z,8.10
2022-08-09T03:48:37.517Z,7.90
2022-08-09T03:51:55.696Z,7.60
2022-08-09T03:54:06.309Z,8.00
2022-08-09T03:56:41.328Z,7.65
2022-08-09T03:59:20.961Z,7.95
2022-08-09T04:15:00.276Z,22.67
2022-08-09T04:17:29.506Z,24.95
2022-08-09T04:19:56.543Z,16.52
2022-08-09T04:22:23.779Z,23.33
2022-08-09T04:24:50.841Z,31.23
2022-08-09T04:27:22.022Z,30.85
2022-08-09T04:29:49.539Z,14.48
2022-08-09T04:32:31.335Z,18.48
2022-08-09T04:35:02.625Z,28.65
2022-08-09T04:37:45.306Z,19.85
2022-08-09T04:40:19.010Z,28.20
2022-08-09T04:42:48.581Z,18.35
2022-08-09T04:45:20.557Z,22.02
2022-08-09T04:48:00.923Z,23.20
2022-08-09T04:50:33.709Z,30.23
2022-08-09T04:53:02.199Z,26.27
2022-08-09T04:55:37.855Z,26.40
2022-08-09T04:58:10.694Z,39.35
2022-08-09T05:00:40.615Z,29.08
2022-08-09T05:03:30.653Z,27.25
2022-08-09T05:06:06.680Z,29.00
2022-08-09T05:08:34.969Z,20.55
2022-08-09T05:11:03.370Z,19.70
2022-08-09T05:13:38.823Z,27.38
2022-08-09T05:16:10.145Z,35.33
2022-08-09T05:18:50.461Z,28.27
2022-08-09T05:21:29.690Z,26.38
2022-08-09T05:24:01.243Z,23.15
2022-08-09T05:26:36.392Z,26.30
2022-08-09T05:29:17.499Z,28.27
2022-08-09T05:31:46.655Z,25.10
2022-08-09T05:34:17.695Z,32.65
2022-08-09T05:36:47.046Z,18.95
2022-08-09T05:39:29.561Z,23.63
2022-08-09T05:42:04.416Z,26.77
2022-08-09T05:44:34.980Z,28.13
2022-08-09T05:47:04.960Z,24.73
2022-08-09T05:50:23.132Z,26.15
2022-08-09T05:52:19.597Z,26.50
2022-08-09T05:54:46.395Z,25.88
2022-08-09T05:57:17.615Z,17.35
2022-08-09T05:59:46.461Z,24.35
2022-08-09T06:02:16.967Z,29.77
2022-08-09T06:04:46.080Z,23.80
2022-08-09T06:07:21.409Z,22.15
2022-08-09T06:09:54.344Z,28.65
2022-08-09T06:12:29.919Z,30.88
2022-08-09T06:15:01.124Z,23.45
2022-08-09T06:17:40.519Z,23.90
2022-08-09T06:20:09.327Z,29.60
2022-08-09T06:22:36.858Z,26.83
2022-08-09T06:25:04.252Z,24.13
2022-08-09T06:27:42.913Z,25.30
2022-08-09T06:30:16.079Z,19.15
2022-08-09T06:32:59.712Z,22.88
2022-08-09T06:35:55.702Z,22.58
2022-08-09T06:38:19.217Z,20.80
2022-08-09T06:40:46.170Z,16.85
2022-08-09T06:43:14.187Z,21.05
2022-08-09T06:46:05.305Z,15.15
2022-08-09T06:48:30.985Z,16.20
2022-08-09T06:50:59.919Z,22.35
2022-08-09T06:53:27.252Z,25.15
2022-08-09T06:56:00.550Z,23.58
2022-08-09T07:00:46.830Z,19.98
2022-08-09T07:01:13.973Z,15.25
2022-08-09T07:03:53.245Z,14.75
2022-08-09T07:06:25.580Z,14.30
2022-08-09T07:08:56.340Z,15.35
2022-08-09T07:11:25.392Z,17.20
2022-08-09T07:14:05.048Z,12.75
2022-08-09T07:16:41.232Z,11.38
2022-08-09T07:19:15.523Z,16.10
2022-08-09T07:21:55.428Z,13.75
2022-08-09T07:24:32.318Z,10.85
2022-08-09T07:27:10.862Z,13.43
2022-08-09T07:29:57.074Z,18.02
2022-08-09T07:32:32.246Z,14.68
2022-08-09T07:35:11.315Z,14.95
2022-08-09T07:37:45.688Z,15.20
2022-08-09T07:40:20.686Z,17.35
2022-08-09T07:42:56.417Z,18.80
2022-08-09T07:45:39.605Z,22.42
2022-08-09T07:48:22.557Z,19.95
2022-08-09T07:51:09.560Z,15.85
2022-08-09T07:54:07.219Z,18.83
2022-08-09T07:56:50.031Z,12.32
2022-08-09T07:59:25.570Z,12.82
2022-08-09T08:02:02.618Z,15.25
2022-08-09T08:04:31.856Z,10.52
2022-08-09T08:07:00.429Z,11.65
2022-08-09T08:09:42.938Z,12.70
2022-08-09T08:12:27.705Z,10.77
2022-08-09T08:14:57.051Z,10.20
2022-08-09T08:17:35.244Z,10.88
2022-08-09T08:20:13.071Z,11.60
2022-08-09T08:22:40.412Z,10.98
2022-08-09T08:25:09.499Z,12.57
2022-08-09T08:27:43.397Z,12.52
2022-08-09T08:30:11.656Z,13.88
2022-08-09T08:32:52.868Z,13.35
2022-08-09T08:35:22.877Z,11.80
2022-08-09T08:38:01.871Z,10.88
2022-08-09T08:40:33.666Z,12.23
2022-08-09T08:43:03.245Z,15.30
2022-08-09T08:45:53.285Z,14.73
2022-08-09T08:48:22.596Z,16.83
2022-08-09T08:53:32.086Z,16.58
2022-08-09T08:56:04.709Z,13.77
2022-08-09T08:58:33.161Z,16.38
2022-08-09T09:01:08.985Z,16.85
2022-08-09T09:03:51.728Z,16.23
2022-08-09T09:06:23.070Z,15.40
2022-08-09T09:08:52.444Z,18.58
2022-08-09T09:11:21.382Z,16.38
2022-08-09T09:13:56.440Z,23.55
2022-08-09T09:16:33.662Z,20.25
2022-08-09T09:19:39.356Z,18.10
2022-08-09T09:22:11.865Z,17.30
2022-08-09T09:24:46.016Z,14.98
2022-08-09T09:28:04.525Z,13.93
2022-08-09T09:30:26.180Z,13.25
2022-08-09T09:33:16.194Z,12.55
2022-08-09T09:36:02.356Z,11.93
2022-08-09T09:38:39.770Z,12.23
2022-08-09T09:41:10.678Z,15.10
2022-08-09T09:43:41.384Z,13.07
2022-08-09T09:46:45.731Z,12.50
2022-08-09T09:49:31.663Z,13.70
2022-08-09T09:52:16.334Z,13.52
2022-08-09T09:55:27.592Z,13.57
2022-08-09T09:58:15.729Z,13.82
2022-08-09T10:00:53.966Z,12.10
2022-08-09T10:03:58.084Z,15.55
2022-08-09T10:06:51.941Z,13.93
2022-08-09T10:09:24.009Z,14.13
2022-08-09T10:12:12.563Z,13.18
2022-08-09T10:14:51.328Z,13.20
2022-08-09T10:17:50.400Z,15.88
2022-08-09T10:20:27.330Z,16.08
2022-08-09T10:23:14.172Z,12.57
2022-08-09T10:26:06.375Z,15.80
2022-08-09T10:28:34.522Z,15.32
2022-08-09T10:34:10.409Z,18.88
2022-08-09T10:36:38.789Z,17.13
2022-08-09T10:39:15.378Z,27.50
2022-08-09T10:41:43.983Z,37.42
2022-08-09T10:44:10.772Z,24.50
2022-08-09T10:47:20.323Z,14.77
2022-08-09T10:50:21.041Z,14.32
2022-08-09T10:53:10.670Z,14.48
2022-08-09T10:55:58.285Z,17.35
2022-08-09T10:58:37.088Z,14.73
2022-08-09T11:03:02.787Z,12.73
2022-08-09T11:04:20.037Z,12.07
2022-08-09T11:07:00.727Z,12.02
2022-08-09T11:09:47.742Z,11.35
2022-08-09T11:12:30.097Z,11.13
2022-08-09T11:15:19.223Z,10.65
2022-08-09T11:17:53.143Z,8.55
2022-08-09T11:20:39.707Z,8.77
2022-08-09T11:25:46.124Z,7.50
2022-08-09T11:28:38.917Z,6.97
2022-08-09T11:31:43.290Z,6.70
2022-08-09T11:34:29.656Z,6.47
2022-08-09T11:36:59.187Z,7.38
2022-08-09T11:39:25.951Z,8.40
2022-08-09T11:42:09.517Z,8.32
2022-08-09T11:44:45.881Z,6.35
2022-08-09T11:47:15.668Z,6.55
2022-08-09T11:50:56.849Z,6.40
2022-08-09T11:53:44.086Z,6.53
2022-08-09T11:56:02.058Z,6.38
2022-08-09T11:58:33.215Z,6.60
2022-08-09T12:01:08.255Z,7.25
2022-08-09T12:06:24.742Z,6.40
2022-08-09T12:08:55.980Z,7.30
2022-08-09T12:11:26.364Z,7.82
2022-08-09T12:14:10.195Z,7.95
2022-08-09T12:16:47.077Z,7.50
2022-08-09T12:19:13.963Z,7.70
2022-08-09T12:21:48.447Z,7.78
2022-08-09T12:24:24.959Z,7.53
2022-08-09T12:29:10.730Z,8.30
2022-08-09T12:30:01.441Z,7.68
2022-08-09T12:32:44.308Z,7.70
2022-08-09T12:35:13.154Z,7.95
2022-08-09T12:37:50.233Z,8.15
2022-08-09T12:40:20.569Z,8.40
2022-08-09T12:42:50.499Z,8.82
2022-08-09T12:45:34.759Z,8.50
2022-08-09T12:48:07.815Z,7.35
2022-08-09T12:50:38.518Z,7.80
2022-08-09T12:53:18.381Z,8.68
2022-08-09T12:56:11.639Z,7.25
2022-08-09T12:58:34.400Z,8.02
2022-08-09T13:01:22.091Z,7.60
2022-08-09T13:04:36.442Z,8.68
2022-08-09T13:07:13.779Z,8.48
2022-08-09T13:09:52.850Z,8.65
2022-08-09T13:12:23.189Z,9.23
2022-08-09T13:14:54.180Z,10.45
2022-08-09T13:18:03.365Z,10.15
2022-08-09T13:20:18.710Z,7.95
2022-08-09T13:23:05.564Z,8.75
2022-08-09T13:25:42.761Z,7.75
2022-08-09T13:28:24.620Z,8.90
2022-08-09T13:32:20.074Z,8.68
2022-08-09T13:33:59.706Z,8.38
2022-08-09T13:36:42.551Z,8.05
2022-08-09T13:39:30.974Z,8.25
2022-08-09T13:42:05.371Z,9.40
2022-08-09T13:44:37.970Z,8.32
2022-08-09T13:47:33.070Z,9.48
2022-08-09T13:50:04.258Z,8.57
2022-08-09T13:52:40.128Z,7.63
2022-08-09T13:55:13.558Z,7.65
2022-08-09T13:57:56.345Z,7.90
2022-08-09T14:00:28.615Z,7.45
2022-08-09T14:03:04.330Z,7.63
2022-08-09T14:05:58.862Z,7.93
2022-08-09T14:11:00.327Z,8.05
2022-08-09T14:14:22.878Z,7.53
2022-08-09T14:16:20.059Z,7.65
2022-08-09T14:18:55.913Z,7.57
2022-08-09T14:21:26.542Z,7.40
